Time;durP1;ratioP1;P1;durP2;ratioP2;P2;SDS_P1;SDS_P2;PMS_P1;PMS_P2;Temp;Humidity;BMP_temperature;BMP_pressure;BME280_temperature;BME280_humidity;BME280_pressure;Samples;Min_cycle;Max_cycle;Signal;HPM_P1;HPM_P2
2021/12/26 00:00:18;;;;;;;25.33;14.93;;;;;;;;;;4953994;29;20743;-73
2021/12/26 00:02:44;;;;;;;31.17;20.10;;;;;;;;;;4955913;28;20034;-74
2021/12/26 00:05:11;;;;;;;31.55;18.65;;;;;;;;;;4973358;28;20046;-74
2021/12/26 00:07:37;;;;;;;43.70;26.40;;;;;;;;;;4972180;28;20026;-73
2021/12/26 00:10:07;;;;;;;65.82;36.05;;;;;;;;;;4973011;28;20041;-75
2021/12/26 00:12:33;;;;;;;62.03;35.55;;;;;;;;;;4972707;28;20470;-77
2021/12/26 00:14:59;;;;;;;85.45;47.85;;;;;;;;;;4971237;28;20052;-73
2021/12/26 00:17:25;;;;;;;57.35;34.70;;;;;;;;;;4970562;28;20045;-74
2021/12/26 00:19:51;;;;;;;61.78;34.22;;;;;;;;;;4971725;28;20536;-73
2021/12/26 00:22:17;;;;;;;52.80;29.65;;;;;;;;;;4972890;28;20035;-74
2021/12/26 00:24:44;;;;;;;36.08;22.08;;;;;;;;;;4972411;28;20046;-73
2021/12/26 00:27:10;;;;;;;48.65;27.75;;;;;;;;;;4973716;28;20018;-73
2021/12/26 00:29:36;;;;;;;23.23;15.77;;;;;;;;;;4972865;28;20077;-74
2021/12/26 00:32:02;;;;;;;27.08;15.80;;;;;;;;;;4972278;28;20055;-74
2021/12/26 00:34:28;;;;;;;22.55;13.30;;;;;;;;;;4972305;28;20042;-74
2021/12/26 00:36:54;;;;;;;41.22;23.83;;;;;;;;;;4972005;28;20030;-74
2021/12/26 00:39:20;;;;;;;47.15;24.55;;;;;;;;;;4971226;28;20042;-74
2021/12/26 00:41:46;;;;;;;49.20;27.85;;;;;;;;;;4972550;28;20042;-74
2021/12/26 00:44:12;;;;;;;45.88;24.42;;;;;;;;;;4972365;28;20038;-74
2021/12/26 00:46:38;;;;;;;40.40;22.08;;;;;;;;;;4971890;28;20118;-74
2021/12/26 00:49:05;;;;;;;39.42;20.80;;;;;;;;;;4970979;28;20114;-74
2021/12/26 00:51:31;;;;;;;38.10;21.58;;;;;;;;;;4971725;28;20385;-74
2021/12/26 00:53:57;;;;;;;46.10;24.25;;;;;;;;;;4971659;28;20041;-74
2021/12/26 00:56:23;;;;;;;54.38;28.17;;;;;;;;;;4972847;28;20058;-74
2021/12/26 00:58:49;;;;;;;46.38;25.92;;;;;;;;;;4971726;28;20548;-74
2021/12/26 01:01:15;;;;;;;43.22;24.92;;;;;;;;;;4972276;28;20038;-73
2021/12/26 01:03:41;;;;;;;55.67;30.27;;;;;;;;;;4971507;28;20034;-73
2021/12/26 01:06:07;;;;;;;41.05;24.13;;;;;;;;;;4971855;28;20042;-74
2021/12/26 01:08:38;;;;;;;48.67;29.55;;;;;;;;;;4971450;28;20073;-74
2021/12/26 01:11:16;;;;;;;94.18;49.00;;;;;;;;;;4972224;28;20482;-74
2021/12/26 01:13:43;;;;;;;64.45;40.50;;;;;;;;;;4971461;28;20085;-74
2021/12/26 01:16:11;;;;;;;57.85;31.48;;;;;;;;;;4972122;28;20031;-73
2021/12/26 01:18:40;;;;;;;59.17;35.58;;;;;;;;;;4971600;28;20073;-73
2021/12/26 01:21:21;;;;;;;48.95;30.20;;;;;;;;;;4971057;28;20034;-74
2021/12/26 01:23:50;;;;;;;55.22;34.13;;;;;;;;;;4971806;28;20049;-74
2021/12/26 01:26:16;;;;;;;46.63;30.65;;;;;;;;;;4971085;28;20042;-73
2021/12/26 01:28:42;;;;;;;54.10;34.22;;;;;;;;;;4971799;28;20182;-74
2021/12/26 01:31:08;;;;;;;80.30;48.92;;;;;;;;;;4971209;28;20509;-74
2021/12/26 01:33:34;;;;;;;45.88;28.42;;;;;;;;;;4971675;28;20117;-74
2021/12/26 01:36:01;;;;;;;51.70;32.30;;;;;;;;;;4965678;28;20043;-74
2021/12/26 01:38:27;;;;;;;63.33;41.75;;;;;;;;;;4971515;28;20102;-74
2021/12/26 01:40:54;;;;;;;43.55;30.20;;;;;;;;;;4967761;28;20038;-74
2021/12/26 01:43:23;;;;;;;48.25;32.47;;;;;;;;;;4971682;28;20062;-74
2021/12/26 01:45:51;;;;;;;45.22;29.85;;;;;;;;;;4971106;28;20038;-74
2021/12/26 01:48:17;;;;;;;57.55;35.35;;;;;;;;;;4971248;28;20082;-74
2021/12/26 01:50:44;;;;;;;29.05;20.27;;;;;;;;;;4970394;28;20034;-74
2021/12/26 01:53:11;;;;;;;25.48;18.40;;;;;;;;;;4971194;28;20088;-74
2021/12/26 01:55:43;;;;;;;31.73;23.25;;;;;;;;;;4965952;28;20439;-74
2021/12/26 01:58:22;;;;;;;41.38;29.65;;;;;;;;;;4951843;29;20082;-74
2021/12/26 02:00:51;;;;;;;33.95;26.35;;;;;;;;;;4963662;28;20105;-73
2021/12/26 02:03:17;;;;;;;21.27;14.75;;;;;;;;;;4971302;28;20479;-73
2021/12/26 02:05:43;;;;;;;20.48;14.43;;;;;;;;;;4970312;28;20046;-74
2021/12/26 02:08:09;;;;;;;20.77;14.15;;;;;;;;;;4971009;28;20035;-74
2021/12/26 02:10:35;;;;;;;15.52;11.60;;;;;;;;;;4970800;28;20027;-74
2021/12/26 02:13:01;;;;;;;33.88;24.17;;;;;;;;;;4952101;28;20841;-74
2021/12/26 02:15:28;;;;;;;32.92;22.58;;;;;;;;;;4951058;29;20031;-73
2021/12/26 02:17:54;;;;;;;28.35;20.27;;;;;;;;;;4959261;28;20043;-74
2021/12/26 02:20:20;;;;;;;16.08;11.18;;;;;;;;;;4950906;28;20078;-73
2021/12/26 02:22:53;;;;;;;20.88;13.73;;;;;;;;;;4964823;28;20030;-74
2021/12/26 02:28:04;;;;;;;20.95;15.07;;;;;;;;;;4965881;28;20055;-74
2021/12/26 02:30:30;;;;;;;17.63;12.40;;;;;;;;;;4970569;28;20027;-74
2021/12/26 02:32:59;;;;;;;22.48;16.13;;;;;;;;;;4969596;28;20536;-74
2021/12/26 02:35:25;;;;;;;24.77;16.80;;;;;;;;;;4970096;28;20121;-74
2021/12/26 02:37:51;;;;;;;25.85;15.55;;;;;;;;;;4969783;28;20038;-74
2021/12/26 02:40:18;;;;;;;23.83;15.07;;;;;;;;;;4970200;28;20035;-74
2021/12/26 02:42:44;;;;;;;18.83;13.75;;;;;;;;;;4970155;28;20712;-74
2021/12/26 02:45:10;;;;;;;17.08;11.75;;;;;;;;;;4970551;28;20067;-74
2021/12/26 02:47:40;;;;;;;22.42;16.10;;;;;;;;;;4969852;28;20038;-74
2021/12/26 02:50:09;;;;;;;17.25;12.20;;;;;;;;;;4970456;28;20042;-74
2021/12/26 02:52:35;;;;;;;20.00;13.55;;;;;;;;;;4970218;28;20034;-74
2021/12/26 02:55:02;;;;;;;23.88;16.45;;;;;;;;;;4970090;28;20062;-73
2021/12/26 02:57:28;;;;;;;24.00;16.40;;;;;;;;;;4969499;28;20382;-73
2021/12/26 02:59:54;;;;;;;23.73;15.75;;;;;;;;;;4970159;28;20043;-74
2021/12/26 03:02:20;;;;;;;15.98;11.32;;;;;;;;;;4973946;28;20035;-73
2021/12/26 03:04:46;;;;;;;18.77;12.90;;;;;;;;;;4973367;28;20070;-74
2021/12/26 03:07:12;;;;;;;21.80;16.00;;;;;;;;;;4974583;28;20820;-73
2021/12/26 03:09:48;;;;;;;27.98;17.75;;;;;;;;;;4973797;28;20046;-73
2021/12/26 03:12:14;;;;;;;19.63;12.68;;;;;;;;;;4973979;28;20478;-73
2021/12/26 03:14:40;;;;;;;21.92;15.43;;;;;;;;;;4973603;28;20058;-74
2021/12/26 03:17:07;;;;;;;20.55;14.98;;;;;;;;;;4974356;28;20038;-74
2021/12/26 03:19:33;;;;;;;24.08;17.83;;;;;;;;;;4973331;28;20043;-74
2021/12/26 03:22:00;;;;;;;22.70;16.13;;;;;;;;;;4974141;28;20042;-73
2021/12/26 03:24:26;;;;;;;15.48;10.60;;;;;;;;;;4972769;28;20167;-74
2021/12/26 03:26:58;;;;;;;14.23;10.45;;;;;;;;;;4974049;28;20497;-74
2021/12/26 03:29:24;;;;;;;15.10;9.32;;;;;;;;;;4972923;28;20037;-74
2021/12/26 03:31:50;;;;;;;13.43;10.18;;;;;;;;;;4973438;28;20043;-73
2021/12/26 03:34:17;;;;;;;18.77;12.20;;;;;;;;;;4972879;28;20465;-73
2021/12/26 03:36:43;;;;;;;14.93;10.35;;;;;;;;;;4971853;28;20031;-73
2021/12/26 03:39:09;;;;;;;10.60;6.55;;;;;;;;;;4970330;28;20532;-73
2021/12/26 03:41:35;;;;;;;11.40;6.75;;;;;;;;;;4973620;28;20039;-74
2021/12/26 03:44:01;;;;;;;9.65;5.88;;;;;;;;;;4972672;28;20065;-73
2021/12/26 03:46:28;;;;;;;12.57;7.53;;;;;;;;;;4973331;28;20474;-73
2021/12/26 03:48:54;;;;;;;12.60;9.50;;;;;;;;;;4972789;28;20095;-73
2021/12/26 03:51:20;;;;;;;12.57;9.18;;;;;;;;;;4973473;28;20034;-73
2021/12/26 03:53:47;;;;;;;11.18;8.32;;;;;;;;;;4972884;28;20038;-73
2021/12/26 03:56:13;;;;;;;11.65;7.63;;;;;;;;;;4973349;28;20042;-73
2021/12/26 03:58:42;;;;;;;14.45;7.85;;;;;;;;;;4968362;28;20042;-73
2021/12/26 04:01:08;;;;;;;12.98;7.47;;;;;;;;;;4954379;28;20553;-73
2021/12/26 04:03:34;;;;;;;13.88;8.20;;;;;;;;;;4956766;28;20039;-73
2021/12/26 04:06:00;;;;;;;15.55;9.88;;;;;;;;;;4972498;28;20892;-73
2021/12/26 04:08:26;;;;;;;15.75;10.48;;;;;;;;;;4972562;28;20086;-73
2021/12/26 04:10:52;;;;;;;16.92;12.10;;;;;;;;;;4972888;28;20037;-73
2021/12/26 04:13:18;;;;;;;15.18;10.95;;;;;;;;;;4972788;28;20047;-73
2021/12/26 04:15:45;;;;;;;14.80;10.02;;;;;;;;;;4972575;28;20101;-73
2021/12/26 04:18:11;;;;;;;16.42;10.90;;;;;;;;;;4972637;28;20043;-73
2021/12/26 04:20:37;;;;;;;12.68;8.32;;;;;;;;;;4971864;28;20478;-72
2021/12/26 04:23:03;;;;;;;18.52;11.30;;;;;;;;;;4972440;28;20053;-73
2021/12/26 04:25:29;;;;;;;17.35;11.63;;;;;;;;;;4971586;28;20026;-73
2021/12/26 04:27:56;;;;;;;16.23;10.50;;;;;;;;;;4972346;28;20034;-73
2021/12/26 04:30:22;;;;;;;16.05;10.00;;;;;;;;;;4971823;28;20034;-73
2021/12/26 04:32:49;;;;;;;13.18;8.75;;;;;;;;;;4971723;28;20054;-73
2021/12/26 04:35:15;;;;;;;14.45;9.48;;;;;;;;;;4971738;28;20035;-73
2021/12/26 04:37:41;;;;;;;11.20;7.88;;;;;;;;;;4971877;28;20035;-73
2021/12/26 04:40:09;;;;;;;11.85;7.80;;;;;;;;;;4971877;28;20042;-73
2021/12/26 04:42:37;;;;;;;14.13;9.27;;;;;;;;;;4972626;28;20034;-73
2021/12/26 04:45:05;;;;;;;13.73;8.85;;;;;;;;;;4964464;28;20109;-73
2021/12/26 04:47:31;;;;;;;12.38;8.23;;;;;;;;;;4968618;28;20027;-73
2021/12/26 04:49:57;;;;;;;13.57;7.15;;;;;;;;;;4971198;28;20126;-72
2021/12/26 04:52:23;;;;;;;11.23;6.97;;;;;;;;;;4963327;28;20027;-73
2021/12/26 04:54:49;;;;;;;8.15;5.40;;;;;;;;;;4970560;28;20039;-73
2021/12/26 04:57:15;;;;;;;9.48;6.22;;;;;;;;;;4972018;28;20027;-72
2021/12/26 04:59:41;;;;;;;12.43;7.43;;;;;;;;;;4971103;28;20869;-73
2021/12/26 05:02:09;;;;;;;12.30;7.90;;;;;;;;;;4972381;28;20035;-73
2021/12/26 05:04:35;;;;;;;13.40;6.85;;;;;;;;;;4971652;28;20635;-73
2021/12/26 05:07:01;;;;;;;10.15;5.90;;;;;;;;;;4971078;28;20139;-73
2021/12/26 05:09:27;;;;;;;11.82;7.30;;;;;;;;;;4971538;28;20876;-72
2021/12/26 05:11:57;;;;;;;11.55;7.25;;;;;;;;;;4969270;28;20097;-73
2021/12/26 05:14:23;;;;;;;13.02;7.85;;;;;;;;;;4971617;28;20035;-73
2021/12/26 05:16:49;;;;;;;15.98;10.07;;;;;;;;;;4971353;28;20041;-72
2021/12/26 05:19:15;;;;;;;12.27;7.82;;;;;;;;;;4970811;28;20039;-73
2021/12/26 05:21:42;;;;;;;10.52;7.03;;;;;;;;;;4971498;28;20034;-73
2021/12/26 05:24:08;;;;;;;11.05;6.45;;;;;;;;;;4970723;28;20042;-72
2021/12/26 05:26:34;;;;;;;12.80;6.07;;;;;;;;;;4971393;28;20093;-73
2021/12/26 05:29:00;;;;;;;14.05;7.25;;;;;;;;;;4970961;28;20410;-73
2021/12/26 05:31:26;;;;;;;10.55;5.50;;;;;;;;;;4970755;28;20042;-73
2021/12/26 05:33:52;;;;;;;11.63;5.97;;;;;;;;;;4967011;28;20035;-73
2021/12/26 05:36:18;;;;;;;10.38;5.85;;;;;;;;;;4959174;28;20035;-73
2021/12/26 05:38:44;;;;;;;13.90;7.93;;;;;;;;;;4970862;28;20114;-73
2021/12/26 05:41:10;;;;;;;17.73;9.38;;;;;;;;;;4971186;28;20110;-72
2021/12/26 05:43:36;;;;;;;10.50;5.97;;;;;;;;;;4970413;28;20049;-73
2021/12/26 05:46:02;;;;;;;17.20;9.70;;;;;;;;;;4970788;28;20027;-73
2021/12/26 05:48:28;;;;;;;15.43;7.95;;;;;;;;;;4965515;28;20041;-73
2021/12/26 05:50:54;;;;;;;16.23;9.63;;;;;;;;;;4970960;28;20030;-73
2021/12/26 05:53:20;;;;;;;14.13;7.53;;;;;;;;;;4970540;28;20041;-73
2021/12/26 05:55:46;;;;;;;12.73;6.43;;;;;;;;;;4963277;28;20383;-72
2021/12/26 05:58:12;;;;;;;12.60;6.78;;;;;;;;;;4970198;28;20118;-72
2021/12/26 06:00:38;;;;;;;12.90;8.20;;;;;;;;;;4970564;28;20026;-73
2021/12/26 06:03:04;;;;;;;11.73;7.97;;;;;;;;;;4970374;28;20482;-73
2021/12/26 06:05:30;;;;;;;7.55;5.28;;;;;;;;;;4969897;28;20031;-73
2021/12/26 06:07:56;;;;;;;8.60;4.35;;;;;;;;;;4970374;28;20049;-73
2021/12/26 06:10:22;;;;;;;11.50;6.32;;;;;;;;;;4969864;28;20035;-72
2021/12/26 06:12:48;;;;;;;9.15;5.55;;;;;;;;;;4969906;28;20046;-73
2021/12/26 06:15:14;;;;;;;8.48;5.43;;;;;;;;;;4969661;28;20046;-73
2021/12/26 06:17:40;;;;;;;12.35;6.85;;;;;;;;;;4969883;28;20030;-73
2021/12/26 06:20:13;;;;;;;12.63;8.13;;;;;;;;;;4970268;28;20057;-73
2021/12/26 06:22:39;;;;;;;12.98;9.35;;;;;;;;;;4967230;28;20792;-73
2021/12/26 06:25:06;;;;;;;23.40;15.13;;;;;;;;;;4970223;28;20093;-73
2021/12/26 06:27:34;;;;;;;17.55;10.07;;;;;;;;;;4967133;28;20470;-72
2021/12/26 06:30:00;;;;;;;12.13;8.73;;;;;;;;;;4970229;28;20031;-72
2021/12/26 06:32:26;;;;;;;12.05;8.23;;;;;;;;;;4965757;28;20538;-73
2021/12/26 06:34:52;;;;;;;14.05;9.27;;;;;;;;;;4969894;28;20050;-72
2021/12/26 06:37:18;;;;;;;13.90;7.10;;;;;;;;;;4969625;28;20027;-72
2021/12/26 06:39:44;;;;;;;13.23;5.68;;;;;;;;;;4969370;28;20383;-73
2021/12/26 06:42:10;;;;;;;9.60;5.72;;;;;;;;;;4970508;28;20027;-72
2021/12/26 06:44:36;;;;;;;8.07;5.40;;;;;;;;;;4969211;28;20034;-73
2021/12/26 06:47:02;;;;;;;9.60;4.93;;;;;;;;;;4964426;28;20031;-72
2021/12/26 06:49:28;;;;;;;8.13;4.82;;;;;;;;;;4963829;28;20062;-72
2021/12/26 06:51:54;;;;;;;8.38;5.80;;;;;;;;;;4966142;28;20031;-73
2021/12/26 06:54:20;;;;;;;13.77;8.63;;;;;;;;;;4958073;28;20086;-73
2021/12/26 06:56:46;;;;;;;13.85;7.63;;;;;;;;;;4969181;28;20034;-73
2021/12/26 06:59:13;;;;;;;13.82;9.73;;;;;;;;;;4968208;28;20475;-74
2021/12/26 07:01:39;;;;;;;21.23;13.10;;;;;;;;;;4965747;28;20030;-73
2021/12/26 07:04:05;;;;;;;25.60;15.73;;;;;;;;;;4965594;28;20039;-73
2021/12/26 07:06:31;;;;;;;28.83;15.98;;;;;;;;;;4964764;28;20038;-73
2021/12/26 07:08:57;;;;;;;20.63;11.13;;;;;;;;;;4963979;28;20038;-73
2021/12/26 07:11:23;;;;;;;19.92;11.45;;;;;;;;;;4969206;28;20030;-73
2021/12/26 07:13:49;;;;;;;15.38;8.95;;;;;;;;;;4959299;28;20043;-72
2021/12/26 07:16:15;;;;;;;15.25;9.80;;;;;;;;;;4969375;28;20031;-73
2021/12/26 07:18:41;;;;;;;15.23;8.43;;;;;;;;;;4968772;28;20039;-73
2021/12/26 07:21:07;;;;;;;12.65;8.55;;;;;;;;;;4969895;28;20049;-74
2021/12/26 07:23:33;;;;;;;28.58;15.10;;;;;;;;;;4968593;28;20047;-73
2021/12/26 07:25:59;;;;;;;18.05;10.38;;;;;;;;;;4966334;28;20062;-73
2021/12/26 07:28:25;;;;;;;17.02;9.68;;;;;;;;;;4968483;28;20039;-73
2021/12/26 07:30:52;;;;;;;15.45;10.05;;;;;;;;;;4969199;28;20019;-73
2021/12/26 07:33:18;;;;;;;18.60;12.35;;;;;;;;;;4961932;28;20062;-73
2021/12/26 07:35:44;;;;;;;21.13;16.92;;;;;;;;;;4968374;28;20035;-74
2021/12/26 07:38:09;;;;;;;20.83;12.50;;;;;;;;;;4969496;28;20562;-74
2021/12/26 07:40:35;;;;;;;14.30;9.65;;;;;;;;;;4969365;28;20027;-74
2021/12/26 07:43:01;;;;;;;14.32;9.55;;;;;;;;;;4967821;28;20163;-74
2021/12/26 07:45:27;;;;;;;12.73;7.78;;;;;;;;;;4965622;28;20039;-73
2021/12/26 07:47:54;;;;;;;10.23;6.10;;;;;;;;;;4971745;28;20078;-74
2021/12/26 07:50:20;;;;;;;17.58;9.30;;;;;;;;;;4972357;28;20035;-73
2021/12/26 07:52:47;;;;;;;13.13;6.55;;;;;;;;;;4973663;28;20198;-73
2021/12/26 07:55:13;;;;;;;24.88;14.20;;;;;;;;;;4971745;28;20038;-74
2021/12/26 07:57:41;;;;;;;21.50;14.15;;;;;;;;;;4972311;28;20135;-74
2021/12/26 08:00:07;;;;;;;18.83;11.57;;;;;;;;;;4968662;28;20050;-74
2021/12/26 08:02:33;;;;;;;22.77;13.73;;;;;;;;;;4972884;28;20053;-74
2021/12/26 08:04:59;;;;;;;28.13;17.40;;;;;;;;;;4972378;28;20473;-74
2021/12/26 08:07:26;;;;;;;52.70;27.95;;;;;;;;;;4969599;28;20031;-73
2021/12/26 08:09:52;;;;;;;21.60;14.27;;;;;;;;;;4965606;28;20883;-73
2021/12/26 08:12:18;;;;;;;19.27;11.43;;;;;;;;;;4968189;28;20551;-74
2021/12/26 08:14:44;;;;;;;14.15;7.93;;;;;;;;;;4971227;28;20039;-73
2021/12/26 08:17:10;;;;;;;12.23;6.32;;;;;;;;;;4969174;28;20031;-73
2021/12/26 08:19:36;;;;;;;6.60;4.05;;;;;;;;;;4969499;28;20066;-73
2021/12/26 08:22:02;;;;;;;8.48;4.47;;;;;;;;;;4970818;28;20031;-73
2021/12/26 08:24:28;;;;;;;8.90;5.03;;;;;;;;;;4971991;28;20397;-74
2021/12/26 08:26:54;;;;;;;18.70;13.50;;;;;;;;;;4966995;28;20027;-73
2021/12/26 08:29:23;;;;;;;23.50;18.98;;;;;;;;;;4967996;28;20818;-73
2021/12/26 08:31:49;;;;;;;20.52;13.02;;;;;;;;;;4969932;28;20039;-74
2021/12/26 08:34:20;;;;;;;29.95;21.02;;;;;;;;;;4969951;28;20035;-74
2021/12/26 08:36:48;;;;;;;17.30;13.35;;;;;;;;;;4970185;28;20030;-73
2021/12/26 08:39:14;;;;;;;20.90;17.77;;;;;;;;;;4970932;28;20035;-73
2021/12/26 08:41:40;;;;;;;15.55;10.85;;;;;;;;;;4969254;28;20034;-74
2021/12/26 08:44:07;;;;;;;10.07;5.90;;;;;;;;;;4969536;28;20109;-74
2021/12/26 08:46:33;;;;;;;11.38;7.72;;;;;;;;;;4969842;28;20038;-73
2021/12/26 08:48:59;;;;;;;17.30;11.38;;;;;;;;;;4966243;28;20026;-74
2021/12/26 08:51:25;;;;;;;15.88;10.93;;;;;;;;;;4970395;28;20023;-75
2021/12/26 08:53:51;;;;;;;20.67;10.40;;;;;;;;;;4968106;28;20042;-75
2021/12/26 08:56:17;;;;;;;16.00;8.80;;;;;;;;;;4969229;28;20049;-75
2021/12/26 08:58:46;;;;;;;14.05;9.65;;;;;;;;;;4968742;28;20078;-74
2021/12/26 09:01:12;;;;;;;17.10;10.88;;;;;;;;;;4970989;28;20038;-75
2021/12/26 09:03:38;;;;;;;16.67;10.40;;;;;;;;;;4968057;28;20792;-74
2021/12/26 09:06:04;;;;;;;15.55;10.00;;;;;;;;;;4970763;28;20031;-74
2021/12/26 09:08:30;;;;;;;16.85;11.07;;;;;;;;;;4970439;28;20804;-74
2021/12/26 09:10:56;;;;;;;15.63;10.30;;;;;;;;;;4973858;28;20034;-75
2021/12/26 09:13:22;;;;;;;15.70;10.10;;;;;;;;;;4970612;28;20034;-75
2021/12/26 09:15:48;;;;;;;15.82;9.50;;;;;;;;;;4970937;28;20517;-74
2021/12/26 09:18:14;;;;;;;20.95;10.50;;;;;;;;;;4969294;28;20047;-74
2021/12/26 09:20:40;;;;;;;15.20;9.73;;;;;;;;;;4952455;28;20034;-74
2021/12/26 09:23:06;;;;;;;17.80;11.52;;;;;;;;;;4970542;28;20049;-74
2021/12/26 09:25:32;;;;;;;15.02;9.88;;;;;;;;;;4969134;28;20034;-74
2021/12/26 09:27:58;;;;;;;13.13;9.32;;;;;;;;;;4949786;28;20042;-74
2021/12/26 09:30:24;;;;;;;17.83;11.70;;;;;;;;;;4967427;28;20023;-75
2021/12/26 09:32:50;;;;;;;21.05;13.95;;;;;;;;;;4969801;28;20161;-73
2021/12/26 09:35:17;;;;;;;22.33;13.52;;;;;;;;;;4970504;28;20064;-73
2021/12/26 09:37:46;;;;;;;30.08;21.40;;;;;;;;;;4969561;28;20073;-73
2021/12/26 09:40:13;;;;;;;34.00;26.70;;;;;;;;;;4967856;28;20089;-74
2021/12/26 09:42:39;;;;;;;123.93;77.95;;;;;;;;;;4970105;28;20038;-74
2021/12/26 09:45:08;;;;;;;111.57;74.47;;;;;;;;;;4969688;28;20065;-74
2021/12/26 09:47:35;;;;;;;106.22;70.90;;;;;;;;;;4969525;28;20019;-75
2021/12/26 09:50:02;;;;;;;59.92;38.28;;;;;;;;;;4968153;28;20150;-75
2021/12/26 09:52:28;;;;;;;36.30;25.02;;;;;;;;;;4970410;28;20106;-74
2021/12/26 09:54:54;;;;;;;25.33;18.45;;;;;;;;;;4970631;28;20035;-74
2021/12/26 09:57:20;;;;;;;15.18;10.93;;;;;;;;;;4971332;28;20393;-74
2021/12/26 09:59:48;;;;;;;12.73;7.05;;;;;;;;;;4968717;28;20049;-74
2021/12/26 10:02:15;;;;;;;11.90;5.70;;;;;;;;;;4969824;28;20145;-74
2021/12/26 10:04:42;;;;;;;9.38;6.03;;;;;;;;;;4970386;28;20081;-75
2021/12/26 10:07:13;;;;;;;9.35;5.35;;;;;;;;;;4967547;28;20030;-74
2021/12/26 10:09:39;;;;;;;16.65;8.93;;;;;;;;;;4970303;28;20027;-74
2021/12/26 10:12:06;;;;;;;18.65;12.32;;;;;;;;;;4970941;28;20071;-74
2021/12/26 10:14:33;;;;;;;17.27;11.15;;;;;;;;;;4967497;28;20113;-74
2021/12/26 10:17:07;;;;;;;17.55;12.50;;;;;;;;;;4969834;28;20077;-74
2021/12/26 10:19:45;;;;;;;19.55;14.32;;;;;;;;;;4967908;28;20081;-74
2021/12/26 10:22:12;;;;;;;15.10;10.65;;;;;;;;;;4969340;28;20587;-74
2021/12/26 10:24:39;;;;;;;20.75;15.82;;;;;;;;;;4964610;28;21023;-75
2021/12/26 10:27:10;;;;;;;21.17;9.43;;;;;;;;;;4964831;28;20081;-74
2021/12/26 10:29:38;;;;;;;15.27;10.50;;;;;;;;;;4968074;28;20037;-74
2021/12/26 10:32:12;;;;;;;14.95;9.05;;;;;;;;;;4970212;28;20449;-74
2021/12/26 10:34:43;;;;;;;13.23;8.85;;;;;;;;;;4968951;28;20375;-74
2021/12/26 10:37:13;;;;;;;15.90;10.27;;;;;;;;;;4968855;28;20134;-74
2021/12/26 10:39:41;;;;;;;18.73;14.15;;;;;;;;;;4970651;28;20035;-74
2021/12/26 10:42:08;;;;;;;19.80;15.48;;;;;;;;;;4964243;28;20040;-74
2021/12/26 10:44:37;;;;;;;27.02;19.40;;;;;;;;;;4969619;28;20062;-74
2021/12/26 10:47:11;;;;;;;24.23;17.38;;;;;;;;;;4969129;28;20045;-74
2021/12/26 10:49:40;;;;;;;27.13;19.65;;;;;;;;;;4969891;28;20034;-75
2021/12/26 10:52:11;;;;;;;22.08;15.50;;;;;;;;;;4969587;28;20577;-75
2021/12/26 10:54:41;;;;;;;19.92;14.77;;;;;;;;;;4969360;28;20038;-75
2021/12/26 10:57:13;;;;;;;18.30;14.52;;;;;;;;;;4969270;28;20536;-74
2021/12/26 10:59:40;;;;;;;18.83;13.95;;;;;;;;;;4969877;28;20038;-74
2021/12/26 11:02:06;;;;;;;18.50;15.57;;;;;;;;;;4968452;28;20105;-74
2021/12/26 11:04:33;;;;;;;20.10;16.27;;;;;;;;;;4969765;28;20035;-74
2021/12/26 11:07:08;;;;;;;18.45;13.95;;;;;;;;;;4969198;28;20122;-74
2021/12/26 11:09:35;;;;;;;18.67;13.85;;;;;;;;;;4966049;28;20057;-74
2021/12/26 11:12:10;;;;;;;22.05;16.75;;;;;;;;;;4967989;28;20042;-74
2021/12/26 11:14:55;;;;;;;25.65;19.23;;;;;;;;;;4963847;28;20025;-74
2021/12/26 11:17:43;;;;;;;27.40;17.45;;;;;;;;;;4962033;28;20117;-75
2021/12/26 11:20:09;;;;;;;27.98;18.33;;;;;;;;;;4968681;28;20031;-74
2021/12/26 11:22:35;;;;;;;43.03;25.88;;;;;;;;;;4971059;28;20035;-75
2021/12/26 11:25:01;;;;;;;34.15;22.15;;;;;;;;;;4973252;28;20035;-75
2021/12/26 11:27:28;;;;;;;30.98;20.77;;;;;;;;;;4969893;28;20075;-74
2021/12/26 11:29:54;;;;;;;29.08;20.08;;;;;;;;;;4971841;28;20038;-74
2021/12/26 11:32:21;;;;;;;36.75;25.63;;;;;;;;;;4972210;28;20051;-75
2021/12/26 11:34:48;;;;;;;24.70;18.90;;;;;;;;;;4972592;28;20043;-74
2021/12/26 11:37:14;;;;;;;24.15;17.30;;;;;;;;;;4973134;28;20039;-74
2021/12/26 11:39:41;;;;;;;22.00;16.95;;;;;;;;;;4972571;28;20042;-74
2021/12/26 11:42:31;;;;;;;21.67;16.88;;;;;;;;;;4972884;28;20050;-75
2021/12/26 11:45:07;;;;;;;23.55;16.73;;;;;;;;;;4970473;28;20784;-74
2021/12/26 11:47:58;;;;;;;20.80;15.88;;;;;;;;;;4971279;28;20033;-75
2021/12/26 11:50:30;;;;;;;26.27;18.25;;;;;;;;;;4971907;28;20100;-74
2021/12/26 11:53:02;;;;;;;33.13;22.55;;;;;;;;;;4967859;28;20039;-74
2021/12/26 11:55:29;;;;;;;35.22;22.70;;;;;;;;;;4972423;28;20035;-74
2021/12/26 11:58:10;;;;;;;25.52;20.25;;;;;;;;;;4966689;28;20374;-74
2021/12/26 12:00:38;;;;;;;28.95;21.77;;;;;;;;;;4970292;28;20142;-74
2021/12/26 12:03:16;;;;;;;46.78;31.27;;;;;;;;;;4971764;28;20359;-74
2021/12/26 12:05:44;;;;;;;43.05;27.58;;;;;;;;;;4972169;28;20599;-75
2021/12/26 12:08:11;;;;;;;52.60;38.50;;;;;;;;;;4972207;28;20034;-74
2021/12/26 12:10:37;;;;;;;54.83;37.15;;;;;;;;;;4971533;28;20063;-74
2021/12/26 12:13:04;;;;;;;46.53;30.77;;;;;;;;;;4964817;28;20034;-75
2021/12/26 12:15:42;;;;;;;30.55;19.77;;;;;;;;;;4972251;28;20119;-74
2021/12/26 12:18:09;;;;;;;24.20;16.92;;;;;;;;;;4970950;28;20042;-74
2021/12/26 12:20:36;;;;;;;20.10;14.65;;;;;;;;;;4972568;28;20038;-74
2021/12/26 12:23:06;;;;;;;25.15;18.08;;;;;;;;;;4972574;28;20038;-74
2021/12/26 12:25:36;;;;;;;18.90;13.40;;;;;;;;;;4970951;28;20049;-75
2021/12/26 12:28:15;;;;;;;16.98;10.75;;;;;;;;;;4972606;28;20050;-74
2021/12/26 12:30:43;;;;;;;17.77;12.68;;;;;;;;;;4970318;28;20034;-75
2021/12/26 12:33:47;;;;;;;22.60;15.77;;;;;;;;;;4968015;28;20121;-75
2021/12/26 12:36:27;;;;;;;36.25;25.20;;;;;;;;;;4897680;29;20039;-74
2021/12/26 12:38:53;;;;;;;41.47;29.65;;;;;;;;;;4962750;28;20054;-74
2021/12/26 12:41:28;;;;;;;35.17;23.83;;;;;;;;;;4964387;28;20062;-75
2021/12/26 12:43:55;;;;;;;28.80;20.02;;;;;;;;;;4970760;28;20050;-75
2021/12/26 12:46:21;;;;;;;24.98;18.42;;;;;;;;;;4966989;28;20105;-75
2021/12/26 12:48:59;;;;;;;23.83;16.27;;;;;;;;;;4971814;28;20728;-75
2021/12/26 12:51:28;;;;;;;24.52;16.27;;;;;;;;;;4971030;28;20035;-75
2021/12/26 12:53:55;;;;;;;22.50;16.05;;;;;;;;;;4970607;28;20062;-75
2021/12/26 12:56:33;;;;;;;32.92;23.27;;;;;;;;;;4971376;28;20078;-74
2021/12/26 12:59:14;;;;;;;27.15;19.25;;;;;;;;;;4970336;28;20378;-74
2021/12/26 13:01:45;;;;;;;25.15;19.30;;;;;;;;;;4968691;28;20090;-75
2021/12/26 13:04:12;;;;;;;23.55;16.48;;;;;;;;;;4970046;28;20038;-74
2021/12/26 13:06:55;;;;;;;23.15;15.60;;;;;;;;;;4970536;28;20495;-75
2021/12/26 13:09:21;;;;;;;13.55;9.27;;;;;;;;;;4968581;28;20031;-72
2021/12/26 13:11:49;;;;;;;16.38;10.60;;;;;;;;;;4971294;28;20061;-72
2021/12/26 13:14:33;;;;;;;14.85;10.52;;;;;;;;;;4969113;28;20561;-72
2021/12/26 13:16:59;;;;;;;20.10;13.82;;;;;;;;;;4969965;28;20039;-73
2021/12/26 13:19:25;;;;;;;19.98;14.82;;;;;;;;;;4971652;28;20042;-73
2021/12/26 13:21:55;;;;;;;19.50;14.38;;;;;;;;;;4970473;28;20433;-73
2021/12/26 13:24:31;;;;;;;24.30;16.63;;;;;;;;;;4971725;28;20081;-72
2021/12/26 13:26:58;;;;;;;19.33;16.10;;;;;;;;;;4969886;28;20125;-72
2021/12/26 13:29:24;;;;;;;23.80;18.60;;;;;;;;;;4968917;28;20042;-73
2021/12/26 13:31:50;;;;;;;23.20;16.38;;;;;;;;;;4970566;28;20055;-72
2021/12/26 13:34:16;;;;;;;25.58;19.35;;;;;;;;;;4971388;28;20035;-73
2021/12/26 13:36:42;;;;;;;24.83;18.50;;;;;;;;;;4970338;28;20845;-72
2021/12/26 13:39:15;;;;;;;24.05;18.45;;;;;;;;;;4970650;28;20042;-73
2021/12/26 13:41:44;;;;;;;19.85;13.82;;;;;;;;;;4966144;28;20030;-72
2021/12/26 13:44:10;;;;;;;48.55;39.97;;;;;;;;;;4967028;28;20070;-73
2021/12/26 13:46:36;;;;;;;21.92;14.55;;;;;;;;;;4968819;28;20077;-72
2021/12/26 13:49:02;;;;;;;49.90;30.10;;;;;;;;;;4969781;28;20042;-72
2021/12/26 13:51:30;;;;;;;36.92;22.20;;;;;;;;;;4964321;28;20033;-73
2021/12/26 13:54:06;;;;;;;25.73;19.88;;;;;;;;;;4966637;28;20031;-73
2021/12/26 13:56:44;;;;;;;118.03;82.13;;;;;;;;;;4968773;28;21277;-74
2021/12/26 13:59:10;;;;;;;80.25;52.35;;;;;;;;;;4970153;28;20496;-73
2021/12/26 14:01:36;;;;;;;41.88;29.88;;;;;;;;;;4969378;28;20062;-73
2021/12/26 14:04:02;;;;;;;60.00;44.50;;;;;;;;;;4969635;28;20038;-74
2021/12/26 14:06:29;;;;;;;41.92;33.28;;;;;;;;;;4973339;28;20042;-73
2021/12/26 14:08:57;;;;;;;30.52;23.13;;;;;;;;;;4968816;28;20034;-74
2021/12/26 14:11:23;;;;;;;27.52;20.73;;;;;;;;;;4970100;28;20082;-74
2021/12/26 14:13:51;;;;;;;25.65;17.83;;;;;;;;;;4960123;28;20031;-74
2021/12/26 14:16:24;;;;;;;24.73;18.88;;;;;;;;;;4966841;28;20035;-74
2021/12/26 14:18:50;;;;;;;24.55;18.60;;;;;;;;;;4966455;28;20122;-74
2021/12/26 14:21:18;;;;;;;25.92;21.15;;;;;;;;;;4969663;28;20062;-73
2021/12/26 14:23:53;;;;;;;24.23;20.52;;;;;;;;;;4968504;28;20386;-73
2021/12/26 14:26:22;;;;;;;22.55;18.42;;;;;;;;;;4961537;28;20030;-74